sensor_id;sensor_type;location;lat;lon;timestamp;temperature;humidity
10512;DHT22;5304;48.604;2.096;2023-02-18T00:02:22;11.50;99.90
10512;DHT22;5304;48.604;2.096;2023-02-18T00:05:06;11.50;99.90
10512;DHT22;5304;48.604;2.096;2023-02-18T00:07:50;11.60;99.90
10512;DHT22;5304;48.604;2.096;2023-02-18T00:10:35;11.60;99.90
10512;DHT22;5304;48.604;2.096;2023-02-18T00:13:19;11.50;99.90
10512;DHT22;5304;48.604;2.096;2023-02-18T00:16:06;11.60;99.90
10512;DHT22;5304;48.604;2.096;2023-02-18T00:18:56;11.60;99.90
10512;DHT22;5304;48.604;2.096;2023-02-18T00:21:41;11.60;99.90
10512;DHT22;5304;48.604;2.096;2023-02-18T00:24:26;11.60;99.90
10512;DHT22;5304;48.604;2.096;2023-02-18T00:27:10;11.60;99.90
10512;DHT22;5304;48.604;2.096;2023-02-18T00:29:55;11.60;99.90
10512;DHT22;5304;48.604;2.096;2023-02-18T00:32:39;11.60;99.90
10512;DHT22;5304;48.604;2.096;2023-02-18T00:35:23;11.60;99.90
10512;DHT22;5304;48.604;2.096;2023-02-18T00:38:08;11.60;99.90
10512;DHT22;5304;48.604;2.096;2023-02-18T00:40:53;11.70;99.90
10512;DHT22;5304;48.604;2.096;2023-02-18T00:43:37;11.60;99.90
10512;DHT22;5304;48.604;2.096;2023-02-18T00:46:22;11.70;99.90
10512;DHT22;5304;48.604;2.096;2023-02-18T00:49:08;11.70;99.90
10512;DHT22;5304;48.604;2.096;2023-02-18T00:51:52;11.60;99.90
10512;DHT22;5304;48.604;2.096;2023-02-18T00:54:37;11.60;99.90
10512;DHT22;5304;48.604;2.096;2023-02-18T00:57:21;11.60;99.90
10512;DHT22;5304;48.604;2.096;2023-02-18T01:00:07;11.50;99.90
10512;DHT22;5304;48.604;2.096;2023-02-18T01:02:52;11.60;99.90
10512;DHT22;5304;48.604;2.096;2023-02-18T01:05:38;11.60;99.90
10512;DHT22;5304;48.604;2.096;2023-02-18T01:08:23;11.60;99.90
10512;DHT22;5304;48.604;2.096;2023-02-18T01:11:08;11.60;99.90
10512;DHT22;5304;48.604;2.096;2023-02-18T01:13:53;11.70;99.90
10512;DHT22;5304;48.604;2.096;2023-02-18T01:16:37;11.70;99.90
10512;DHT22;5304;48.604;2.096;2023-02-18T01:19:22;11.70;99.90
10512;DHT22;5304;48.604;2.096;2023-02-18T01:22:06;11.90;99.90
10512;DHT22;5304;48.604;2.096;2023-02-18T01:24:51;11.80;99.90
10512;DHT22;5304;48.604;2.096;2023-02-18T01:27:36;11.80;99.90
10512;DHT22;5304;48.604;2.096;2023-02-18T01:30:20;11.70;99.90
10512;DHT22;5304;48.604;2.096;2023-02-18T01:33:05;11.70;99.90
10512;DHT22;5304;48.604;2.096;2023-02-18T01:35:51;11.70;99.90
10512;DHT22;5304;48.604;2.096;2023-02-18T01:38:37;11.70;99.90
10512;DHT22;5304;48.604;2.096;2023-02-18T01:41:22;11.70;99.90
10512;DHT22;5304;48.604;2.096;2023-02-18T01:44:16;11.70;99.90
10512;DHT22;5304;48.604;2.096;2023-02-18T01:47:01;11.70;99.90
10512;DHT22;5304;48.604;2.096;2023-02-18T01:49:49;11.60;99.90
10512;DHT22;5304;48.604;2.096;2023-02-18T01:52:35;11.70;99.90
10512;DHT22;5304;48.604;2.096;2023-02-18T01:55:20;11.60;99.90
10512;DHT22;5304;48.604;2.096;2023-02-18T01:58:05;11.60;99.90
10512;DHT22;5304;48.604;2.096;2023-02-18T02:00:49;11.70;99.90
10512;DHT22;5304;48.604;2.096;2023-02-18T02:03:34;11.70;99.90
10512;DHT22;5304;48.604;2.096;2023-02-18T02:06:20;11.70;99.90
10512;DHT22;5304;48.604;2.096;2023-02-18T02:09:08;11.60;99.90
10512;DHT22;5304;48.604;2.096;2023-02-18T02:15:02;11.60;99.90
10512;DHT22;5304;48.604;2.096;2023-02-18T02:24:50;11.60;99.90
10512;DHT22;5304;48.604;2.096;2023-02-18T02:27:04;11.70;99.90
10512;DHT22;5304;48.604;2.096;2023-02-18T02:36:02;11.60;99.90
10512;DHT22;5304;48.604;2.096;2023-02-18T02:39:42;11.70;99.90
10512;DHT22;5304;48.604;2.096;2023-02-18T02:51:53;11.50;99.90
10512;DHT22;5304;48.604;2.096;2023-02-18T02:54:40;11.60;99.90
10512;DHT22;5304;48.604;2.096;2023-02-18T03:00:10;11.60;99.90
10512;DHT22;5304;48.604;2.096;2023-02-18T03:03:04;11.60;99.90
10512;DHT22;5304;48.604;2.096;2023-02-18T03:12:24;11.60;99.90
10512;DHT22;5304;48.604;2.096;2023-02-18T03:15:27;11.60;99.90
10512;DHT22;5304;48.604;2.096;2023-02-18T03:24:36;11.50;99.90
10512;DHT22;5304;48.604;2.096;2023-02-18T03:30:17;11.60;99.90
10512;DHT22;5304;48.604;2.096;2023-02-18T03:33:06;11.50;99.90
10512;DHT22;5304;48.604;2.096;2023-02-18T03:35:53;11.60;99.90
10512;DHT22;5304;48.604;2.096;2023-02-18T03:38:45;11.50;99.90
10512;DHT22;5304;48.604;2.096;2023-02-18T03:41:30;11.60;99.90
10512;DHT22;5304;48.604;2.096;2023-02-18T03:44:14;11.60;99.90
10512;DHT22;5304;48.604;2.096;2023-02-18T03:46:59;11.50;99.90
10512;DHT22;5304;48.604;2.096;2023-02-18T03:49:43;11.60;99.90
10512;DHT22;5304;48.604;2.096;2023-02-18T03:52:28;11.50;99.90
10512;DHT22;5304;48.604;2.096;2023-02-18T03:55:13;11.50;99.90
10512;DHT22;5304;48.604;2.096;2023-02-18T03:57:57;11.60;99.90
10512;DHT22;5304;48.604;2.096;2023-02-18T04:00:42;11.50;99.90
10512;DHT22;5304;48.604;2.096;2023-02-18T04:03:26;11.60;99.90
10512;DHT22;5304;48.604;2.096;2023-02-18T04:06:11;11.60;99.90
10512;DHT22;5304;48.604;2.096;2023-02-18T04:08:55;11.50;99.90
10512;DHT22;5304;48.604;2.096;2023-02-18T04:11:40;11.50;99.90
10512;DHT22;5304;48.604;2.096;2023-02-18T04:14:24;11.50;99.90
10512;DHT22;5304;48.604;2.096;2023-02-18T04:17:09;11.50;99.90
10512;DHT22;5304;48.604;2.096;2023-02-18T04:19:53;11.50;99.90
10512;DHT22;5304;48.604;2.096;2023-02-18T04:22:37;11.40;99.90
10512;DHT22;5304;48.604;2.096;2023-02-18T04:25:22;11.40;99.90
10512;DHT22;5304;48.604;2.096;2023-02-18T04:28:06;11.30;99.90
10512;DHT22;5304;48.604;2.096;2023-02-18T04:30:51;11.30;99.90
10512;DHT22;5304;48.604;2.096;2023-02-18T04:33:35;11.30;99.90
10512;DHT22;5304;48.604;2.096;2023-02-18T04:36:20;11.30;99.90
10512;DHT22;5304;48.604;2.096;2023-02-18T04:39:04;11.30;99.90
10512;DHT22;5304;48.604;2.096;2023-02-18T04:41:49;11.20;99.90
10512;DHT22;5304;48.604;2.096;2023-02-18T04:44:37;11.20;99.90
10512;DHT22;5304;48.604;2.096;2023-02-18T04:47:21;11.30;99.90
10512;DHT22;5304;48.604;2.096;2023-02-18T04:50:06;11.20;99.90
10512;DHT22;5304;48.604;2.096;2023-02-18T04:52:51;11.30;99.90
10512;DHT22;5304;48.604;2.096;2023-02-18T04:55:35;11.20;99.90
10512;DHT22;5304;48.604;2.096;2023-02-18T04:58:20;11.20;99.90
10512;DHT22;5304;48.604;2.096;2023-02-18T05:01:05;11.20;99.90
10512;DHT22;5304;48.604;2.096;2023-02-18T05:03:49;11.10;99.90
10512;DHT22;5304;48.604;2.096;2023-02-18T05:06:34;11.10;99.90
10512;DHT22;5304;48.604;2.096;2023-02-18T05:09:19;11.10;99.90
10512;DHT22;5304;48.604;2.096;2023-02-18T05:12:05;11.20;99.90
10512;DHT22;5304;48.604;2.096;2023-02-18T05:14:50;11.10;99.90
10512;DHT22;5304;48.604;2.096;2023-02-18T05:17:34;11.10;99.90
10512;DHT22;5304;48.604;2.096;2023-02-18T05:20:19;11.10;99.90
10512;DHT22;5304;48.604;2.096;2023-02-18T05:23:03;11.10;99.90
10512;DHT22;5304;48.604;2.096;2023-02-18T05:25:48;11.20;99.90
10512;DHT22;5304;48.604;2.096;2023-02-18T05:28:32;11.10;99.90
10512;DHT22;5304;48.604;2.096;2023-02-18T05:31:17;11.10;99.90
10512;DHT22;5304;48.604;2.096;2023-02-18T05:34:01;11.00;99.90
10512;DHT22;5304;48.604;2.096;2023-02-18T05:36:45;11.00;99.90
10512;DHT22;5304;48.604;2.096;2023-02-18T05:39:30;11.00;99.90
10512;DHT22;5304;48.604;2.096;2023-02-18T05:42:15;10.90;99.90
10512;DHT22;5304;48.604;2.096;2023-02-18T05:44:59;10.90;99.90
10512;DHT22;5304;48.604;2.096;2023-02-18T05:47:43;10.80;99.90
10512;DHT22;5304;48.604;2.096;2023-02-18T05:50:28;10.90;99.90
10512;DHT22;5304;48.604;2.096;2023-02-18T05:53:13;10.80;99.90
10512;DHT22;5304;48.604;2.096;2023-02-18T05:55:57;10.80;99.90
10512;DHT22;5304;48.604;2.096;2023-02-18T05:58:41;10.90;99.90
10512;DHT22;5304;48.604;2.096;2023-02-18T06:01:26;10.80;99.90
10512;DHT22;5304;48.604;2.096;2023-02-18T06:04:11;10.80;99.90
10512;DHT22;5304;48.604;2.096;2023-02-18T06:06:56;10.70;99.90
10512;DHT22;5304;48.604;2.096;2023-02-18T06:09:40;10.80;99.90
10512;DHT22;5304;48.604;2.096;2023-02-18T06:12:25;10.80;99.90
10512;DHT22;5304;48.604;2.096;2023-02-18T06:15:09;10.80;99.90
10512;DHT22;5304;48.604;2.096;2023-02-18T06:17:53;10.80;99.90
10512;DHT22;5304;48.604;2.096;2023-02-18T06:20:38;10.70;99.90
10512;DHT22;5304;48.604;2.096;2023-02-18T06:23:23;10.80;99.90
10512;DHT22;5304;48.604;2.096;2023-02-18T06:26:08;10.70;99.90
10512;DHT22;5304;48.604;2.096;2023-02-18T06:28:52;10.70;99.90
10512;DHT22;5304;48.604;2.096;2023-02-18T06:31:37;10.80;99.90
10512;DHT22;5304;48.604;2.096;2023-02-18T06:34:21;10.80;99.90
10512;DHT22;5304;48.604;2.096;2023-02-18T06:37:06;10.70;99.90
10512;DHT22;5304;48.604;2.096;2023-02-18T06:39:50;10.70;99.90
10512;DHT22;5304;48.604;2.096;2023-02-18T06:42:35;10.60;99.90
10512;DHT22;5304;48.604;2.096;2023-02-18T06:45:19;10.70;99.90
10512;DHT22;5304;48.604;2.096;2023-02-18T06:48:04;10.70;99.90
10512;DHT22;5304;48.604;2.096;2023-02-18T06:50:49;10.70;99.90
10512;DHT22;5304;48.604;2.096;2023-02-18T06:53:33;10.70;99.90
10512;DHT22;5304;48.604;2.096;2023-02-18T06:56:17;10.80;99.90
10512;DHT22;5304;48.604;2.096;2023-02-18T06:59:02;10.70;99.90
10512;DHT22;5304;48.604;2.096;2023-02-18T07:01:46;10.80;99.90
10512;DHT22;5304;48.604;2.096;2023-02-18T07:04:31;10.70;99.90
10512;DHT22;5304;48.604;2.096;2023-02-18T07:07:15;10.70;99.90
10512;DHT22;5304;48.604;2.096;2023-02-18T07:10:00;10.70;99.90
10512;DHT22;5304;48.604;2.096;2023-02-18T07:12:44;10.70;99.90
10512;DHT22;5304;48.604;2.096;2023-02-18T07:15:28;10.70;99.90
10512;DHT22;5304;48.604;2.096;2023-02-18T07:18:13;10.60;99.90
10512;DHT22;5304;48.604;2.096;2023-02-18T07:20:57;10.60;99.90
10512;DHT22;5304;48.604;2.096;2023-02-18T07:23:42;10.60;99.90
10512;DHT22;5304;48.604;2.096;2023-02-18T07:26:27;10.50;99.90
10512;DHT22;5304;48.604;2.096;2023-02-18T07:29:11;10.60;99.90
10512;DHT22;5304;48.604;2.096;2023-02-18T07:31:55;10.50;99.90
10512;DHT22;5304;48.604;2.096;2023-02-18T07:34:40;10.50;99.90
10512;DHT22;5304;48.604;2.096;2023-02-18T07:37:24;10.50;99.90
10512;DHT22;5304;48.604;2.096;2023-02-18T07:40:11;10.40;99.90
10512;DHT22;5304;48.604;2.096;2023-02-18T07:42:56;10.50;99.90
10512;DHT22;5304;48.604;2.096;2023-02-18T07:45:40;10.60;99.90
10512;DHT22;5304;48.604;2.096;2023-02-18T07:48:24;10.60;99.90
10512;DHT22;5304;48.604;2.096;2023-02-18T07:51:11;10.60;99.90
10512;DHT22;5304;48.604;2.096;2023-02-18T07:53:56;10.60;99.90
10512;DHT22;5304;48.604;2.096;2023-02-18T07:56:40;10.70;99.90
10512;DHT22;5304;48.604;2.096;2023-02-18T07:59:26;10.70;99.90
10512;DHT22;5304;48.604;2.096;2023-02-18T08:02:20;10.70;99.90
10512;DHT22;5304;48.604;2.096;2023-02-18T08:05:04;10.70;99.90
10512;DHT22;5304;48.604;2.096;2023-02-18T08:07:49;10.80;99.90
10512;DHT22;5304;48.604;2.096;2023-02-18T08:10:33;10.70;99.90
10512;DHT22;5304;48.604;2.096;2023-02-18T08:13:17;10.70;99.90
10512;DHT22;5304;48.604;2.096;2023-02-18T08:16:02;10.70;99.90
10512;DHT22;5304;48.604;2.096;2023-02-18T08:18:47;10.80;99.90
10512;DHT22;5304;48.604;2.096;2023-02-18T08:21:32;10.80;99.90
10512;DHT22;5304;48.604;2.096;2023-02-18T08:24:17;10.80;99.90
10512;DHT22;5304;48.604;2.096;2023-02-18T08:27:01;10.80;99.90
10512;DHT22;5304;48.604;2.096;2023-02-18T08:29:46;10.80;99.90
10512;DHT22;5304;48.604;2.096;2023-02-18T08:32:30;10.80;99.90
10512;DHT22;5304;48.604;2.096;2023-02-18T08:35:15;10.90;99.90
10512;DHT22;5304;48.604;2.096;2023-02-18T08:37:59;10.90;99.90
10512;DHT22;5304;48.604;2.096;2023-02-18T08:40:44;11.00;99.90
10512;DHT22;5304;48.604;2.096;2023-02-18T08:43:29;10.90;99.90
10512;DHT22;5304;48.604;2.096;2023-02-18T08:46:13;11.00;99.90
10512;DHT22;5304;48.604;2.096;2023-02-18T08:48:58;11.00;99.90
10512;DHT22;5304;48.604;2.096;2023-02-18T08:51:43;11.00;99.90
10512;DHT22;5304;48.604;2.096;2023-02-18T08:54:27;11.00;99.90
10512;DHT22;5304;48.604;2.096;2023-02-18T08:57:12;11.00;99.90
10512;DHT22;5304;48.604;2.096;2023-02-18T08:59:56;11.00;99.90
10512;DHT22;5304;48.604;2.096;2023-02-18T09:02:41;11.10;99.90
10512;DHT22;5304;48.604;2.096;2023-02-18T09:05:26;11.20;99.90
10512;DHT22;5304;48.604;2.096;2023-02-18T09:08:10;11.20;99.90
10512;DHT22;5304;48.604;2.096;2023-02-18T09:10:57;11.20;99.90
10512;DHT22;5304;48.604;2.096;2023-02-18T09:13:41;11.30;99.90
10512;DHT22;5304;48.604;2.096;2023-02-18T09:16:26;11.30;99.90
10512;DHT22;5304;48.604;2.096;2023-02-18T09:19:11;11.40;99.90
10512;DHT22;5304;48.604;2.096;2023-02-18T09:21:56;11.30;99.90
10512;DHT22;5304;48.604;2.096;2023-02-18T09:24:41;11.30;99.90
10512;DHT22;5304;48.604;2.096;2023-02-18T09:27:26;11.30;99.90
10512;DHT22;5304;48.604;2.096;2023-02-18T09:30:10;11.30;99.90
10512;DHT22;5304;48.604;2.096;2023-02-18T09:32:54;11.40;99.90
10512;DHT22;5304;48.604;2.096;2023-02-18T09:35:43;11.50;99.90
10512;DHT22;5304;48.604;2.096;2023-02-18T09:38:28;11.50;99.90
10512;DHT22;5304;48.604;2.096;2023-02-18T09:44:22;11.60;99.90
10512;DHT22;5304;48.604;2.096;2023-02-18T09:50:12;11.50;99.90
10512;DHT22;5304;48.604;2.096;2023-02-18T09:52:58;11.50;99.90
10512;DHT22;5304;48.604;2.096;2023-02-18T09:55:44;11.50;99.90
10512;DHT22;5304;48.604;2.096;2023-02-18T09:58:31;11.50;99.90
10512;DHT22;5304;48.604;2.096;2023-02-18T10:07:26;11.70;99.90
10512;DHT22;5304;48.604;2.096;2023-02-18T10:10:21;11.70;99.90
10512;DHT22;5304;48.604;2.096;2023-02-18T10:13:17;11.70;99.90
10512;DHT22;5304;48.604;2.096;2023-02-18T10:16:01;11.70;99.90
10512;DHT22;5304;48.604;2.096;2023-02-18T10:18:53;11.80;99.90
10512;DHT22;5304;48.604;2.096;2023-02-18T10:21:38;11.80;99.90
10512;DHT22;5304;48.604;2.096;2023-02-18T10:27:34;11.70;99.90
10512;DHT22;5304;48.604;2.096;2023-02-18T10:30:29;11.80;99.90
10512;DHT22;5304;48.604;2.096;2023-02-18T10:33:34;11.80;99.90
10512;DHT22;5304;48.604;2.096;2023-02-18T10:36:38;11.90;99.90
10512;DHT22;5304;48.604;2.096;2023-02-18T10:42:53;11.70;99.90
10512;DHT22;5304;48.604;2.096;2023-02-18T10:49:10;11.90;99.90
10512;DHT22;5304;48.604;2.096;2023-02-18T10:51:59;12.00;99.90
10512;DHT22;5304;48.604;2.096;2023-02-18T10:54:52;12.00;99.90
10512;DHT22;5304;48.604;2.096;2023-02-18T10:57:48;11.90;99.90
10512;DHT22;5304;48.604;2.096;2023-02-18T11:00:35;12.00;99.90
10512;DHT22;5304;48.604;2.096;2023-02-18T11:17:56;12.00;99.90
10512;DHT22;5304;48.604;2.096;2023-02-18T11:20:41;12.10;99.90
10512;DHT22;5304;48.604;2.096;2023-02-18T11:23:26;12.10;99.90
10512;DHT22;5304;48.604;2.096;2023-02-18T11:26:13;12.10;99.90
10512;DHT22;5304;48.604;2.096;2023-02-18T11:29:20;12.20;99.90
10512;DHT22;5304;48.604;2.096;2023-02-18T11:32:10;12.30;99.90
10512;DHT22;5304;48.604;2.096;2023-02-18T11:34:56;12.20;99.90
10512;DHT22;5304;48.604;2.096;2023-02-18T11:37:40;12.20;99.90
10512;DHT22;5304;48.604;2.096;2023-02-18T11:40:31;12.20;99.90
10512;DHT22;5304;48.604;2.096;2023-02-18T11:43:18;12.30;99.90
10512;DHT22;5304;48.604;2.096;2023-02-18T11:46:23;12.30;99.90
10512;DHT22;5304;48.604;2.096;2023-02-18T11:49:20;12.20;99.90
10512;DHT22;5304;48.604;2.096;2023-02-18T11:52:44;12.30;99.90
10512;DHT22;5304;48.604;2.096;2023-02-18T11:55:29;12.40;99.90
10512;DHT22;5304;48.604;2.096;2023-02-18T11:58:15;12.40;99.90
10512;DHT22;5304;48.604;2.096;2023-02-18T12:01:00;12.50;99.90
10512;DHT22;5304;48.604;2.096;2023-02-18T12:03:53;12.60;99.90
10512;DHT22;5304;48.604;2.096;2023-02-18T12:09:39;12.40;99.90
10512;DHT22;5304;48.604;2.096;2023-02-18T12:12:31;12.40;99.90
10512;DHT22;5304;48.604;2.096;2023-02-18T12:15:23;12.40;99.90
10512;DHT22;5304;48.604;2.096;2023-02-18T12:21:44;12.30;99.90
10512;DHT22;5304;48.604;2.096;2023-02-18T12:24:34;12.30;99.90
10512;DHT22;5304;48.604;2.096;2023-02-18T12:40:36;12.20;99.90
10512;DHT22;5304;48.604;2.096;2023-02-18T12:49:57;12.40;99.90
10512;DHT22;5304;48.604;2.096;2023-02-18T13:05:02;12.40;99.90
10512;DHT22;5304;48.604;2.096;2023-02-18T13:14:11;12.40;99.90
10512;DHT22;5304;48.604;2.096;2023-02-18T13:16:58;12.50;99.90
10512;DHT22;5304;48.604;2.096;2023-02-18T13:19:54;12.50;99.90
10512;DHT22;5304;48.604;2.096;2023-02-18T13:22:40;12.50;99.90
10512;DHT22;5304;48.604;2.096;2023-02-18T13:25:25;12.60;99.90
10512;DHT22;5304;48.604;2.096;2023-02-18T13:29:08;12.80;99.90
10512;DHT22;5304;48.604;2.096;2023-02-18T13:31:55;12.80;99.90
10512;DHT22;5304;48.604;2.096;2023-02-18T13:41:04;13.10;99.90
10512;DHT22;5304;48.604;2.096;2023-02-18T13:43:49;13.20;99.90
10512;DHT22;5304;48.604;2.096;2023-02-18T13:46:47;13.10;99.90
10512;DHT22;5304;48.604;2.096;2023-02-18T13:49:33;13.10;99.90
10512;DHT22;5304;48.604;2.096;2023-02-18T13:52:19;13.20;99.90
10512;DHT22;5304;48.604;2.096;2023-02-18T13:55:04;13.00;99.90
10512;DHT22;5304;48.604;2.096;2023-02-18T13:57:52;13.20;99.90
10512;DHT22;5304;48.604;2.096;2023-02-18T14:00:40;13.10;99.90
10512;DHT22;5304;48.604;2.096;2023-02-18T14:03:33;13.00;99.90
10512;DHT22;5304;48.604;2.096;2023-02-18T14:06:35;12.90;99.90
10512;DHT22;5304;48.604;2.096;2023-02-18T14:20:51;12.60;99.90
10512;DHT22;5304;48.604;2.096;2023-02-18T14:24:03;12.60;99.90
10512;DHT22;5304;48.604;2.096;2023-02-18T14:26:50;12.70;99.90
10512;DHT22;5304;48.604;2.096;2023-02-18T14:29:35;12.80;99.90
10512;DHT22;5304;48.604;2.096;2023-02-18T14:32:20;12.80;99.90
10512;DHT22;5304;48.604;2.096;2023-02-18T14:36:02;12.70;99.90
10512;DHT22;5304;48.604;2.096;2023-02-18T14:45:04;12.50;99.90
10512;DHT22;5304;48.604;2.096;2023-02-18T14:50:48;12.50;99.90
10512;DHT22;5304;48.604;2.096;2023-02-18T14:53:43;12.40;99.90
10512;DHT22;5304;48.604;2.096;2023-02-18T14:56:28;12.40;99.90
10512;DHT22;5304;48.604;2.096;2023-02-18T14:59:13;12.40;99.90
10512;DHT22;5304;48.604;2.096;2023-02-18T15:01:58;12.50;99.90
10512;DHT22;5304;48.604;2.096;2023-02-18T15:04:43;12.50;99.90
10512;DHT22;5304;48.604;2.096;2023-02-18T15:07:28;12.50;99.90
10512;DHT22;5304;48.604;2.096;2023-02-18T15:10:14;12.50;99.90
10512;DHT22;5304;48.604;2.096;2023-02-18T15:13:01;12.50;99.90
10512;DHT22;5304;48.604;2.096;2023-02-18T15:15:53;12.40;99.90
10512;DHT22;5304;48.604;2.096;2023-02-18T15:18:41;12.30;99.90
10512;DHT22;5304;48.604;2.096;2023-02-18T15:21:30;12.40;99.90
10512;DHT22;5304;48.604;2.096;2023-02-18T15:24:35;12.40;99.90
10512;DHT22;5304;48.604;2.096;2023-02-18T15:27:24;12.40;99.90
10512;DHT22;5304;48.604;2.096;2023-02-18T15:30:20;12.50;99.90
10512;DHT22;5304;48.604;2.096;2023-02-18T15:33:10;12.40;99.90
10512;DHT22;5304;48.604;2.096;2023-02-18T15:36:04;12.30;99.90
10512;DHT22;5304;48.604;2.096;2023-02-18T15:38:49;12.30;99.90
10512;DHT22;5304;48.604;2.096;2023-02-18T15:41:34;12.20;99.90
10512;DHT22;5304;48.604;2.096;2023-02-18T15:44:21;12.30;99.90
10512;DHT22;5304;48.604;2.096;2023-02-18T15:47:08;12.20;99.90
10512;DHT22;5304;48.604;2.096;2023-02-18T15:49:55;12.20;99.90
10512;DHT22;5304;48.604;2.096;2023-02-18T15:52:40;12.20;99.90
10512;DHT22;5304;48.604;2.096;2023-02-18T15:55:34;12.20;99.90
10512;DHT22;5304;48.604;2.096;2023-02-18T15:58:29;12.20;99.90
10512;DHT22;5304;48.604;2.096;2023-02-18T16:01:26;12.20;99.90
10512;DHT22;5304;48.604;2.096;2023-02-18T16:04:12;12.20;99.90
10512;DHT22;5304;48.604;2.096;2023-02-18T16:10:37;12.20;99.90
10512;DHT22;5304;48.604;2.096;2023-02-18T16:13:24;12.10;99.90
10512;DHT22;5304;48.604;2.096;2023-02-18T16:16:29;11.90;99.90
10512;DHT22;5304;48.604;2.096;2023-02-18T16:19:23;11.90;99.90
10512;DHT22;5304;48.604;2.096;2023-02-18T16:25:19;11.80;99.90
10512;DHT22;5304;48.604;2.096;2023-02-18T16:28:11;11.80;99.90
10512;DHT22;5304;48.604;2.096;2023-02-18T16:30:56;11.70;99.90
10512;DHT22;5304;48.604;2.096;2023-02-18T16:33:41;11.70;99.90
10512;DHT22;5304;48.604;2.096;2023-02-18T16:36:26;11.60;99.90
10512;DHT22;5304;48.604;2.096;2023-02-18T16:39:11;11.60;99.90
10512;DHT22;5304;48.604;2.096;2023-02-18T16:41:55;11.60;99.90
10512;DHT22;5304;48.604;2.096;2023-02-18T16:44:40;11.50;99.90
10512;DHT22;5304;48.604;2.096;2023-02-18T16:47:24;11.50;99.90
10512;DHT22;5304;48.604;2.096;2023-02-18T16:50:20;11.50;99.90
10512;DHT22;5304;48.604;2.096;2023-02-18T16:53:04;11.50;99.90
10512;DHT22;5304;48.604;2.096;2023-02-18T16:55:49;11.60;99.90
10512;DHT22;5304;48.604;2.096;2023-02-18T16:58:37;11.50;99.90
10512;DHT22;5304;48.604;2.096;2023-02-18T17:01:41;11.50;99.90
10512;DHT22;5304;48.604;2.096;2023-02-18T17:04:28;11.40;99.90
10512;DHT22;5304;48.604;2.096;2023-02-18T17:07:12;11.30;99.90
10512;DHT22;5304;48.604;2.096;2023-02-18T17:09:59;11.40;99.90
10512;DHT22;5304;48.604;2.096;2023-02-18T17:12:44;11.30;99.90
10512;DHT22;5304;48.604;2.096;2023-02-18T17:15:32;11.20;99.90
10512;DHT22;5304;48.604;2.096;2023-02-18T17:18:17;11.20;99.90
10512;DHT22;5304;48.604;2.096;2023-02-18T17:21:02;11.20;99.90
10512;DHT22;5304;48.604;2.096;2023-02-18T17:23:47;11.30;99.90
10512;DHT22;5304;48.604;2.096;2023-02-18T17:26:33;11.20;99.90
10512;DHT22;5304;48.604;2.096;2023-02-18T17:29:17;11.20;99.90
10512;DHT22;5304;48.604;2.096;2023-02-18T17:32:04;11.20;99.90
10512;DHT22;5304;48.604;2.096;2023-02-18T17:34:49;11.10;99.90
10512;DHT22;5304;48.604;2.096;2023-02-18T17:37:34;11.10;99.90
10512;DHT22;5304;48.604;2.096;2023-02-18T17:40:23;11.10;99.90
10512;DHT22;5304;48.604;2.096;2023-02-18T17:43:15;11.10;99.90
10512;DHT22;5304;48.604;2.096;2023-02-18T17:46:00;11.10;99.90
10512;DHT22;5304;48.604;2.096;2023-02-18T17:48:45;11.00;99.90
10512;DHT22;5304;48.604;2.096;2023-02-18T17:51:30;11.00;99.90
10512;DHT22;5304;48.604;2.096;2023-02-18T17:54:17;11.00;99.90
10512;DHT22;5304;48.604;2.096;2023-02-18T17:57:01;11.00;99.90
10512;DHT22;5304;48.604;2.096;2023-02-18T17:59:46;10.90;99.90
10512;DHT22;5304;48.604;2.096;2023-02-18T18:02:30;11.00;99.90
10512;DHT22;5304;48.604;2.096;2023-02-18T18:05:30;11.00;99.90
10512;DHT22;5304;48.604;2.096;2023-02-18T18:08:16;11.00;99.90
10512;DHT22;5304;48.604;2.096;2023-02-18T18:11:00;11.00;99.90
10512;DHT22;5304;48.604;2.096;2023-02-18T18:13:45;10.90;99.90
10512;DHT22;5304;48.604;2.096;2023-02-18T18:16:29;10.90;99.90
10512;DHT22;5304;48.604;2.096;2023-02-18T18:19:14;10.90;99.90
10512;DHT22;5304;48.604;2.096;2023-02-18T18:21:58;11.00;99.90
10512;DHT22;5304;48.604;2.096;2023-02-18T18:24:43;10.90;99.90
10512;DHT22;5304;48.604;2.096;2023-02-18T18:27:27;10.90;99.90
10512;DHT22;5304;48.604;2.096;2023-02-18T18:30:12;10.90;99.90
10512;DHT22;5304;48.604;2.096;2023-02-18T18:32:57;10.80;99.90
10512;DHT22;5304;48.604;2.096;2023-02-18T18:35:44;10.80;99.90
10512;DHT22;5304;48.604;2.096;2023-02-18T18:38:29;10.80;99.90
10512;DHT22;5304;48.604;2.096;2023-02-18T18:41:15;10.70;99.90
10512;DHT22;5304;48.604;2.096;2023-02-18T18:44:01;10.70;99.90
10512;DHT22;5304;48.604;2.096;2023-02-18T18:46:46;10.60;99.90
10512;DHT22;5304;48.604;2.096;2023-02-18T18:49:30;10.60;99.90
10512;DHT22;5304;48.604;2.096;2023-02-18T18:52:15;10.60;99.90
10512;DHT22;5304;48.604;2.096;2023-02-18T18:55:00;10.50;99.90
10512;DHT22;5304;48.604;2.096;2023-02-18T18:57:44;10.40;99.90
10512;DHT22;5304;48.604;2.096;2023-02-18T19:00:38;10.40;99.90
10512;DHT22;5304;48.604;2.096;2023-02-18T19:03:25;10.50;99.90
10512;DHT22;5304;48.604;2.096;2023-02-18T19:06:11;10.40;99.90
10512;DHT22;5304;48.604;2.096;2023-02-18T19:08:56;10.40;99.90
10512;DHT22;5304;48.604;2.096;2023-02-18T19:11:40;10.40;99.90
10512;DHT22;5304;48.604;2.096;2023-02-18T19:14:24;10.40;99.90
10512;DHT22;5304;48.604;2.096;2023-02-18T19:17:09;10.50;99.90
10512;DHT22;5304;48.604;2.096;2023-02-18T19:19:54;10.40;99.90
10512;DHT22;5304;48.604;2.096;2023-02-18T19:22:38;10.40;99.90
10512;DHT22;5304;48.604;2.096;2023-02-18T19:25:23;10.50;99.90
10512;DHT22;5304;48.604;2.096;2023-02-18T19:28:09;10.50;99.90
10512;DHT22;5304;48.604;2.096;2023-02-18T19:30:57;10.50;99.90
10512;DHT22;5304;48.604;2.096;2023-02-18T19:33:41;10.60;99.90
10512;DHT22;5304;48.604;2.096;2023-02-18T19:36:28;10.50;99.90
10512;DHT22;5304;48.604;2.096;2023-02-18T19:39:13;10.50;99.90
10512;DHT22;5304;48.604;2.096;2023-02-18T19:41:57;10.50;99.90
10512;DHT22;5304;48.604;2.096;2023-02-18T19:44:42;10.50;99.90
10512;DHT22;5304;48.604;2.096;2023-02-18T19:47:27;10.40;99.90
10512;DHT22;5304;48.604;2.096;2023-02-18T19:50:15;10.40;99.90
10512;DHT22;5304;48.604;2.096;2023-02-18T19:53:00;10.40;99.90
10512;DHT22;5304;48.604;2.096;2023-02-18T19:55:45;10.40;99.90
10512;DHT22;5304;48.604;2.096;2023-02-18T19:58:29;10.40;99.90
10512;DHT22;5304;48.604;2.096;2023-02-18T20:01:15;10.40;99.90
10512;DHT22;5304;48.604;2.096;2023-02-18T20:04:00;10.40;99.90
10512;DHT22;5304;48.604;2.096;2023-02-18T20:06:44;10.40;99.90
10512;DHT22;5304;48.604;2.096;2023-02-18T20:09:29;10.40;99.90
10512;DHT22;5304;48.604;2.096;2023-02-18T20:12:14;10.40;99.90
10512;DHT22;5304;48.604;2.096;2023-02-18T20:14:58;10.40;99.90
10512;DHT22;5304;48.604;2.096;2023-02-18T20:17:42;10.30;99.90
10512;DHT22;5304;48.604;2.096;2023-02-18T20:20:27;10.40;99.90
10512;DHT22;5304;48.604;2.096;2023-02-18T20:23:11;10.40;99.90
10512;DHT22;5304;48.604;2.096;2023-02-18T20:25:56;10.40;99.90
10512;DHT22;5304;48.604;2.096;2023-02-18T20:28:40;10.30;99.90
10512;DHT22;5304;48.604;2.096;2023-02-18T20:31:25;10.40;99.90